Bishop, California
Current Conditions -  °F | °C
As of 11:56 PM on Saturday 22 Nov 2014 (Local Time) from KBIH Reporting Station
Clear Clear  
Wind Chill: 38°   Ceiling: Unl
Heat Index: 46°   Visibility: 10mi
Dew Point: 23°   Wind: 22mph
Humidity: 40%   Direction: 360°N
Pressure: 30.14"   Gusts: 32mph
Location:  37.24°N, 118.4°W
Report Text: KBIH 230756Z AUTO 36019G28KT 10SM CLR 08/M05 A3014 RMK AO2 PK WND 35028/0756 SLP185 T00781050 401941017
Loading
Personal Weather Stations






























Interactive Weather Map New forecast layout! Learn more

10-Day Weather Forecast

Advertisements
Track Severe Weather on mobile